Time;durP1;ratioP1;P1;durP2;ratioP2;P2;SDS_P1;SDS_P2;PMS_P1;PMS_P2;Temp;Humidity;BMP_temperature;BMP_pressure;BME280_temperature;BME280_humidity;BME280_pressure;Samples;Min_cycle;Max_cycle;Signal;HPM_P1;HPM_P2
2023/05/02 00:01:39;;;;;;;13.07;10.97;;;14.60;99.90;;;;;;5033743;28;21132;-82
2023/05/02 00:04:09;;;;;;;11.57;10.13;;;14.60;99.90;;;;;;5033751;28;20463;-82
2023/05/02 00:06:45;;;;;;;12.83;11.47;;;14.60;99.90;;;;;;5066535;28;20460;-82
2023/05/02 00:09:13;;;;;;;14.27;10.70;;;14.60;99.90;;;;;;5092663;28;20478;-82
2023/05/02 00:11:42;;;;;;;14.13;10.97;;;14.60;99.90;;;;;;5098374;28;20543;-85
2023/05/02 00:14:35;;;;;;;10.80;9.70;;;14.60;99.90;;;;;;5081765;28;20520;-82
2023/05/02 00:17:16;;;;;;;13.00;11.20;;;14.60;99.90;;;;;;5079847;28;20461;-82
2023/05/02 00:19:51;;;;;;;14.70;11.50;;;14.60;99.90;;;;;;5073484;28;20481;-82
2023/05/02 00:22:38;;;;;;;13.03;10.80;;;14.60;99.90;;;;;;5076466;28;20453;-83
2023/05/02 00:25:05;;;;;;;13.90;11.27;;;14.50;99.90;;;;;;5084819;28;20459;-82
2023/05/02 00:27:51;;;;;;;12.47;11.13;;;14.50;99.90;;;;;;5070165;28;20450;-82
2023/05/02 00:30:19;;;;;;;16.30;12.17;;;14.40;99.90;;;;;;5084072;28;20469;-84
2023/05/02 00:32:53;;;;;;;14.27;11.20;;;14.40;99.90;;;;;;5061689;28;20833;-83
2023/05/02 00:35:22;;;;;;;13.27;11.70;;;14.30;99.90;;;;;;5055387;28;20457;-83
2023/05/02 00:37:51;;;;;;;14.13;11.90;;;14.30;99.90;;;;;;5076225;28;20530;-83
2023/05/02 00:40:20;;;;;;;17.00;12.80;;;14.20;99.90;;;;;;5076454;28;20510;-83
2023/05/02 00:42:47;;;;;;;13.57;11.90;;;14.20;99.90;;;;;;5098647;28;20438;-81
2023/05/02 00:45:20;;;;;;;16.07;11.97;;;14.20;99.90;;;;;;5094338;28;20483;-81
2023/05/02 00:47:48;;;;;;;15.77;12.30;;;14.20;99.90;;;;;;5091043;28;20455;-81
2023/05/02 00:50:26;;;;;;;15.80;12.40;;;14.10;99.90;;;;;;5068366;28;20506;-82
2023/05/02 00:52:59;;;;;;;17.43;12.30;;;14.00;99.90;;;;;;5078585;28;20493;-83
2023/05/02 00:55:30;;;;;;;16.33;12.70;;;14.10;99.90;;;;;;5088510;28;20490;-83
2023/05/02 00:58:07;;;;;;;15.27;10.90;;;14.00;99.90;;;;;;5076206;28;20491;-82
2023/05/02 01:01:22;;;;;;;15.03;11.07;;;14.00;99.90;;;;;;5092074;28;20477;-82
2023/05/02 01:04:03;;;;;;;15.43;11.17;;;14.00;99.90;;;;;;5078392;28;20456;-83
2023/05/02 01:06:54;;;;;;;16.50;11.50;;;14.00;99.90;;;;;;5089954;28;20456;-82
2023/05/02 01:09:48;;;;;;;16.70;11.03;;;14.00;99.90;;;;;;5091032;28;20478;-81
2023/05/02 01:12:23;;;;;;;15.77;10.97;;;14.00;99.90;;;;;;5094159;28;20477;-82
2023/05/02 01:14:54;;;;;;;15.50;11.63;;;13.90;99.90;;;;;;5105597;28;20503;-83
2023/05/02 01:17:25;;;;;;;15.17;11.23;;;13.90;99.90;;;;;;5092878;28;20459;-82
2023/05/02 01:19:56;;;;;;;17.60;11.10;;;13.80;99.90;;;;;;5072029;28;20467;-81
2023/05/02 01:22:26;;;;;;;17.40;12.30;;;13.80;99.90;;;;;;5092642;28;20466;-82
2023/05/02 01:25:16;;;;;;;17.67;12.50;;;13.80;99.90;;;;;;5094567;28;20869;-82
2023/05/02 01:28:05;;;;;;;16.97;12.50;;;13.70;99.90;;;;;;5077946;28;20443;-81
2023/05/02 01:30:35;;;;;;;15.53;12.53;;;13.70;99.90;;;;;;5091706;28;20704;-83
2023/05/02 01:33:04;;;;;;;14.47;12.53;;;13.70;99.90;;;;;;5071720;28;20454;-80
2023/05/02 01:35:34;;;;;;;17.50;12.90;;;13.70;99.90;;;;;;5073196;28;20519;-82
2023/05/02 01:38:02;;;;;;;16.63;13.27;;;13.70;99.90;;;;;;5078793;28;20466;-83
2023/05/02 01:40:29;;;;;;;18.40;12.73;;;13.70;99.90;;;;;;5079164;28;20486;-84
2023/05/02 01:42:57;;;;;;;17.63;12.40;;;13.70;99.90;;;;;;5077603;28;20801;-81
2023/05/02 01:45:25;;;;;;;17.47;13.00;;;13.70;99.90;;;;;;5076090;28;20483;-85
2023/05/02 01:47:53;;;;;;;19.67;12.77;;;13.60;99.90;;;;;;5079274;28;20451;-83
2023/05/02 01:50:23;;;;;;;22.93;14.97;;;13.60;99.90;;;;;;5091390;28;20466;-82
2023/05/02 01:52:52;;;;;;;17.40;12.50;;;13.50;99.90;;;;;;5093501;28;20455;-83
2023/05/02 01:55:19;;;;;;;20.97;14.20;;;13.60;99.90;;;;;;5109814;28;20456;-83
2023/05/02 01:57:47;;;;;;;19.47;13.83;;;13.60;99.90;;;;;;5078689;28;20466;-84
2023/05/02 02:00:17;;;;;;;19.40;12.80;;;13.50;99.90;;;;;;5075931;28;20482;-83
2023/05/02 02:02:45;;;;;;;21.33;15.00;;;13.40;99.90;;;;;;5091554;28;20438;-82
2023/05/02 02:05:13;;;;;;;19.30;13.93;;;13.40;99.90;;;;;;5098663;28;20453;-82
2023/05/02 02:07:40;;;;;;;21.80;13.67;;;13.40;99.90;;;;;;5074253;28;20964;-82
2023/05/02 02:10:07;;;;;;;17.93;13.70;;;13.40;99.90;;;;;;5075559;28;20473;-81
2023/05/02 02:13:12;;;;;;;18.90;13.37;;;13.40;99.90;;;;;;5105577;28;20455;-83
2023/05/02 02:15:41;;;;;;;17.10;13.20;;;13.40;99.90;;;;;;5052061;28;20580;-82
2023/05/02 02:18:13;;;;;;;23.83;15.20;;;13.40;99.90;;;;;;5072526;28;20892;-82
2023/05/02 02:20:43;;;;;;;18.23;14.23;;;13.40;99.90;;;;;;5087337;28;20486;-82
2023/05/02 02:23:13;;;;;;;18.80;13.23;;;13.40;99.90;;;;;;5071718;28;20459;-83
2023/05/02 02:25:42;;;;;;;20.57;14.40;;;13.40;99.90;;;;;;5084232;28;20953;-82
2023/05/02 02:28:08;;;;;;;20.70;13.63;;;13.40;99.90;;;;;;5074675;28;20451;-82
2023/05/02 02:30:36;;;;;;;21.70;14.47;;;13.40;99.90;;;;;;5068490;28;20574;-81
2023/05/02 02:33:02;;;;;;;20.70;13.80;;;13.30;99.90;;;;;;5081547;28;21107;-83
2023/05/02 02:35:36;;;;;;;18.37;13.50;;;13.30;99.90;;;;;;5072549;28;20529;-83
2023/05/02 02:38:12;;;;;;;18.90;13.30;;;13.30;99.90;;;;;;5083715;28;20492;-82
2023/05/02 02:40:59;;;;;;;23.03;13.83;;;13.20;99.90;;;;;;5085471;28;20485;-83
2023/05/02 02:43:31;;;;;;;20.77;13.23;;;13.20;99.90;;;;;;5073169;28;20806;-82
2023/05/02 02:46:27;;;;;;;20.67;13.03;;;13.20;99.90;;;;;;5075302;28;20447;-81
2023/05/02 02:49:31;;;;;;;18.00;12.37;;;13.20;99.90;;;;;;5080441;28;20497;-80
2023/05/02 02:52:09;;;;;;;18.60;12.30;;;13.30;99.90;;;;;;5082093;28;20544;-80
2023/05/02 02:54:50;;;;;;;19.80;12.20;;;13.30;99.90;;;;;;5099458;28;20459;-81
2023/05/02 02:57:54;;;;;;;20.33;11.27;;;13.30;99.90;;;;;;5084177;28;20451;-81
2023/05/02 03:00:26;;;;;;;20.57;12.03;;;13.30;99.90;;;;;;5078850;28;20479;-82
2023/05/02 03:02:54;;;;;;;15.20;10.57;;;13.20;99.90;;;;;;5070519;28;20466;-83
2023/05/02 03:05:21;;;;;;;17.60;10.10;;;13.20;99.90;;;;;;5065837;28;20512;-82
2023/05/02 03:07:49;;;;;;;18.40;11.57;;;13.20;99.90;;;;;;5071978;28;20473;-81
2023/05/02 03:10:16;;;;;;;15.83;11.17;;;13.20;99.90;;;;;;5088985;28;20607;-82
2023/05/02 03:12:43;;;;;;;18.63;10.40;;;13.20;99.90;;;;;;5063234;28;20459;-82
2023/05/02 03:16:04;;;;;;;18.33;11.13;;;13.20;99.90;;;;;;5070923;28;20516;-81
2023/05/02 03:18:32;;;;;;;18.03;11.27;;;13.20;99.90;;;;;;5067504;28;20466;-84
2023/05/02 03:20:59;;;;;;;16.17;10.80;;;13.20;99.90;;;;;;5089004;28;20827;-81
2023/05/02 03:23:26;;;;;;;17.13;11.30;;;13.20;99.90;;;;;;5081230;28;20548;-81
2023/05/02 03:25:53;;;;;;;17.90;11.30;;;13.20;99.90;;;;;;5083330;28;20454;-81
2023/05/02 03:28:19;;;;;;;18.57;11.60;;;13.20;99.90;;;;;;5085505;28;20487;-82
2023/05/02 03:30:46;;;;;;;18.13;10.03;;;13.30;99.90;;;;;;5073821;28;20486;-81
2023/05/02 03:33:13;;;;;;;16.07;11.20;;;13.30;99.90;;;;;;5093670;28;20450;-82
2023/05/02 03:35:41;;;;;;;21.30;11.70;;;13.30;99.90;;;;;;5068606;28;20458;-82
2023/05/02 03:38:08;;;;;;;14.70;10.80;;;13.30;99.90;;;;;;5072445;28;20522;-83
2023/05/02 03:40:35;;;;;;;15.70;9.93;;;13.30;99.90;;;;;;5089044;28;21210;-84
2023/05/02 03:43:02;;;;;;;15.60;10.50;;;13.30;99.90;;;;;;5068125;28;21110;-83
2023/05/02 03:45:29;;;;;;;13.77;9.27;;;13.30;99.90;;;;;;5084647;28;20455;-82
2023/05/02 03:47:55;;;;;;;14.57;10.10;;;13.30;99.90;;;;;;5084869;28;20922;-83
2023/05/02 03:50:22;;;;;;;12.47;9.73;;;13.30;99.90;;;;;;5074170;28;20466;-84
2023/05/02 03:52:49;;;;;;;16.27;10.43;;;13.30;99.90;;;;;;5087198;28;20489;-83
2023/05/02 03:55:16;;;;;;;17.33;11.90;;;13.20;99.90;;;;;;5076896;28;20450;-82
2023/05/02 03:57:43;;;;;;;19.47;11.07;;;13.20;99.90;;;;;;5072612;28;21122;-82
2023/05/02 04:00:11;;;;;;;17.03;11.00;;;13.20;99.90;;;;;;5089600;28;20535;-82
2023/05/02 04:02:37;;;;;;;13.60;9.77;;;13.30;99.90;;;;;;5069174;28;20478;-83
2023/05/02 04:05:05;;;;;;;15.30;10.90;;;13.30;99.90;;;;;;5073982;28;20467;-82
2023/05/02 04:07:31;;;;;;;16.00;11.13;;;13.30;99.90;;;;;;5075383;28;20470;-82
2023/05/02 04:09:58;;;;;;;17.20;10.80;;;13.30;99.90;;;;;;5076871;28;21020;-81
2023/05/02 04:12:25;;;;;;;15.93;10.10;;;13.20;99.90;;;;;;5073230;28;20451;-81
2023/05/02 04:14:53;;;;;;;15.60;9.30;;;13.30;99.90;;;;;;5076435;28;20463;-82
2023/05/02 04:17:20;;;;;;;15.33;10.33;;;13.30;99.90;;;;;;5073145;28;20527;-82
2023/05/02 04:19:47;;;;;;;17.63;9.60;;;13.30;99.90;;;;;;5085228;28;20608;-83
2023/05/02 04:22:14;;;;;;;16.10;10.37;;;13.30;99.90;;;;;;5090709;28;20508;-83
2023/05/02 04:24:41;;;;;;;16.30;10.37;;;13.30;99.90;;;;;;5073592;28;20458;-81
2023/05/02 04:27:08;;;;;;;14.00;9.37;;;13.30;99.90;;;;;;5086336;28;20990;-81
2023/05/02 04:29:35;;;;;;;18.10;10.47;;;13.30;99.90;;;;;;5069787;28;20478;-81
2023/05/02 04:32:02;;;;;;;15.37;9.33;;;13.30;99.90;;;;;;5076052;28;20981;-82
2023/05/02 04:34:29;;;;;;;16.00;9.83;;;13.30;99.90;;;;;;5099675;28;20454;-83
2023/05/02 04:36:56;;;;;;;16.17;10.67;;;13.30;99.90;;;;;;5074772;28;20554;-80
2023/05/02 04:39:22;;;;;;;15.37;10.10;;;13.20;99.90;;;;;;5107985;28;20476;-79
2023/05/02 04:41:49;;;;;;;14.80;10.37;;;13.30;99.90;;;;;;5088873;28;20484;-80
2023/05/02 04:44:19;;;;;;;14.60;9.97;;;13.20;99.90;;;;;;5086067;28;20443;-81
2023/05/02 04:46:46;;;;;;;18.77;10.23;;;13.20;99.90;;;;;;5088447;28;20440;-79
2023/05/02 04:49:13;;;;;;;15.70;10.63;;;13.20;99.90;;;;;;5093660;28;20558;-82
2023/05/02 04:51:40;;;;;;;13.50;9.43;;;13.20;99.90;;;;;;5074807;28;20481;-82
2023/05/02 04:54:07;;;;;;;16.23;9.90;;;13.20;99.90;;;;;;5080296;28;20465;-82
2023/05/02 04:56:35;;;;;;;17.30;10.20;;;13.20;99.90;;;;;;5078136;28;20462;-82
2023/05/02 04:59:01;;;;;;;15.00;10.77;;;13.20;99.90;;;;;;5090829;28;20478;-82
2023/05/02 05:01:28;;;;;;;17.73;9.90;;;13.30;99.90;;;;;;5076113;28;20472;-81
2023/05/02 05:03:56;;;;;;;12.57;8.03;;;13.30;99.90;;;;;;5078926;28;20457;-83
2023/05/02 05:06:23;;;;;;;15.30;9.63;;;13.20;99.90;;;;;;5076143;28;20455;-83
2023/05/02 05:08:50;;;;;;;15.30;9.63;;;13.20;99.90;;;;;;5076298;28;20455;-82
2023/05/02 05:11:17;;;;;;;14.30;8.87;;;13.30;99.90;;;;;;5106856;28;20546;-83
2023/05/02 05:13:45;;;;;;;14.00;7.90;;;13.30;99.90;;;;;;5080765;28;20459;-83
2023/05/02 05:16:12;;;;;;;14.07;10.13;;;13.20;99.90;;;;;;5078612;28;20455;-83
2023/05/02 05:18:39;;;;;;;13.93;9.13;;;13.20;99.90;;;;;;5095759;28;20439;-82
2023/05/02 05:21:07;;;;;;;14.27;9.80;;;13.30;99.90;;;;;;5105408;28;20463;-82
2023/05/02 05:23:35;;;;;;;11.10;7.53;;;13.30;99.90;;;;;;5084639;28;20455;-82
2023/05/02 05:26:09;;;;;;;11.20;7.80;;;13.30;99.90;;;;;;5077717;28;20461;-84
2023/05/02 05:28:37;;;;;;;14.90;9.03;;;13.30;99.90;;;;;;5101062;28;20457;-82
2023/05/02 05:31:09;;;;;;;13.53;8.87;;;13.30;99.90;;;;;;5072039;28;20460;-81
2023/05/02 05:33:40;;;;;;;14.37;8.37;;;13.30;99.90;;;;;;5089447;28;20454;-81
2023/05/02 05:36:08;;;;;;;14.03;9.50;;;13.30;99.90;;;;;;5118061;28;20444;-83
2023/05/02 05:38:36;;;;;;;11.40;8.03;;;13.40;99.90;;;;;;5094180;28;20514;-82
2023/05/02 05:41:04;;;;;;;14.80;8.60;;;13.40;99.90;;;;;;5099974;28;20439;-82
2023/05/02 05:43:31;;;;;;;13.90;9.20;;;13.40;99.90;;;;;;5087405;28;21028;-82
2023/05/02 05:45:58;;;;;;;13.90;9.03;;;13.40;99.90;;;;;;5099849;28;20459;-82
2023/05/02 05:48:26;;;;;;;13.37;9.10;;;13.30;99.90;;;;;;5096260;28;20452;-81
2023/05/02 05:50:53;;;;;;;10.50;8.60;;;13.30;99.90;;;;;;5115581;28;20542;-80
2023/05/02 05:53:20;;;;;;;13.70;8.70;;;13.30;99.90;;;;;;5117465;28;20446;-82
2023/05/02 05:55:47;;;;;;;12.60;8.33;;;13.30;99.90;;;;;;5102072;28;20457;-81
2023/05/02 05:58:14;;;;;;;11.30;6.80;;;13.30;99.90;;;;;;5108240;28;20457;-81
2023/05/02 06:00:41;;;;;;;13.30;8.50;;;13.30;99.90;;;;;;5106960;28;20531;-81
2023/05/02 06:03:08;;;;;;;10.33;7.30;;;13.30;99.90;;;;;;5104228;28;20632;-80
2023/05/02 06:05:35;;;;;;;11.30;7.30;;;13.30;99.90;;;;;;5098585;28;20441;-81
2023/05/02 06:08:02;;;;;;;10.80;8.20;;;13.40;99.90;;;;;;5109389;28;20438;-81
2023/05/02 06:10:39;;;;;;;10.10;6.53;;;13.40;99.90;;;;;;5116831;28;20493;-82
2023/05/02 06:13:12;;;;;;;9.80;6.90;;;13.40;99.90;;;;;;5114955;28;20447;-81
2023/05/02 06:15:59;;;;;;;11.27;7.80;;;13.40;99.90;;;;;;5093084;28;20446;-81
2023/05/02 06:18:30;;;;;;;10.77;7.20;;;13.40;99.90;;;;;;5103393;28;20451;-81
2023/05/02 06:21:12;;;;;;;9.30;6.83;;;13.30;99.90;;;;;;5094107;28;20450;-81
2023/05/02 06:23:40;;;;;;;13.40;7.93;;;13.30;99.90;;;;;;5106210;28;20485;-80
2023/05/02 06:26:25;;;;;;;11.07;6.60;;;13.30;99.90;;;;;;5111399;28;20549;-81
2023/05/02 06:28:54;;;;;;;9.00;7.17;;;13.30;99.90;;;;;;5104980;28;20474;-81
2023/05/02 06:31:37;;;;;;;9.10;6.90;;;13.20;99.90;;;;;;5060003;28;20537;-80
2023/05/02 06:34:13;;;;;;;11.17;7.83;;;13.10;99.90;;;;;;5070850;28;20504;-81
2023/05/02 06:36:40;;;;;;;14.80;7.63;;;13.20;99.90;;;;;;5073500;28;20471;-81
2023/05/02 06:39:19;;;;;;;10.30;7.00;;;13.30;99.90;;;;;;5076749;28;20544;-80
2023/05/02 06:41:57;;;;;;;11.90;7.47;;;13.30;99.90;;;;;;5073547;28;20479;-82
2023/05/02 06:44:25;;;;;;;9.73;6.43;;;13.20;99.90;;;;;;5090572;28;20569;-83
2023/05/02 06:46:51;;;;;;;9.83;7.37;;;13.20;99.90;;;;;;5071168;28;20483;-82
2023/05/02 06:49:30;;;;;;;10.50;7.03;;;13.20;99.90;;;;;;5092439;28;20470;-83
2023/05/02 06:52:05;;;;;;;11.47;8.20;;;13.10;99.90;;;;;;5074646;28;20526;-82
2023/05/02 06:54:34;;;;;;;10.87;7.87;;;13.10;99.90;;;;;;5090288;28;20612;-83
2023/05/02 06:57:12;;;;;;;11.50;7.73;;;13.10;99.90;;;;;;5071582;28;20473;-83
2023/05/02 06:59:50;;;;;;;12.00;7.00;;;13.10;99.90;;;;;;5092290;28;20530;-80
2023/05/02 07:02:33;;;;;;;9.47;7.27;;;13.10;99.90;;;;;;5093262;28;20494;-83
2023/05/02 07:05:20;;;;;;;12.10;7.50;;;13.10;99.90;;;;;;5074323;28;20481;-83
2023/05/02 07:08:02;;;;;;;11.07;7.00;;;13.20;99.90;;;;;;5090530;28;20467;-83
2023/05/02 07:10:41;;;;;;;10.43;6.60;;;13.30;99.90;;;;;;5073587;28;20462;-83
2023/05/02 07:13:10;;;;;;;10.47;6.47;;;13.30;99.90;;;;;;5070366;28;20459;-83
2023/05/02 07:15:43;;;;;;;10.87;7.17;;;13.40;99.90;;;;;;5077954;28;20454;-82
2023/05/02 07:18:26;;;;;;;9.93;6.27;;;13.30;99.90;;;;;;5087912;28;20470;-82
2023/05/02 07:21:03;;;;;;;8.30;5.67;;;13.40;99.90;;;;;;5063975;28;20485;-82
2023/05/02 07:23:40;;;;;;;11.37;7.20;;;13.40;99.90;;;;;;5094766;28;20477;-83
2023/05/02 07:26:11;;;;;;;11.33;6.60;;;13.50;99.90;;;;;;5079383;28;20609;-83
2023/05/02 07:28:39;;;;;;;8.87;6.03;;;13.50;99.90;;;;;;5078914;28;20941;-83
2023/05/02 07:31:12;;;;;;;8.83;6.73;;;13.50;99.90;;;;;;5092356;28;20458;-83
2023/05/02 07:33:55;;;;;;;12.17;7.67;;;13.60;99.90;;;;;;5079713;28;20460;-83
2023/05/02 07:36:35;;;;;;;8.33;6.47;;;13.60;99.90;;;;;;5093662;28;20451;-84
2023/05/02 07:39:03;;;;;;;10.80;7.50;;;13.50;99.90;;;;;;5077357;28;20927;-83
2023/05/02 07:41:51;;;;;;;11.97;8.63;;;13.50;99.90;;;;;;5078198;28;20464;-82
2023/05/02 07:44:24;;;;;;;14.27;9.97;;;13.50;99.90;;;;;;5094990;28;21040;-82
2023/05/02 07:46:56;;;;;;;10.53;7.97;;;13.50;99.90;;;;;;5086382;28;20455;-82
2023/05/02 07:49:36;;;;;;;12.70;7.87;;;13.60;99.90;;;;;;5090388;28;21354;-82
2023/05/02 07:52:27;;;;;;;11.33;8.17;;;13.50;99.90;;;;;;5080765;28;20463;-83
2023/05/02 07:55:00;;;;;;;15.07;8.00;;;13.60;99.90;;;;;;5081199;28;20455;-81
2023/05/02 07:57:40;;;;;;;10.63;8.10;;;13.90;99.90;;;;;;5092677;28;20553;-82
2023/05/02 08:00:10;;;;;;;12.67;6.97;;;13.70;99.90;;;;;;5096731;28;20520;-83
2023/05/02 08:02:42;;;;;;;10.87;7.40;;;13.50;99.90;;;;;;5081316;28;20534;-83
2023/05/02 08:05:17;;;;;;;7.00;5.80;;;13.60;99.90;;;;;;5095311;28;20447;-81
2023/05/02 08:07:50;;;;;;;12.00;7.10;;;13.70;99.90;;;;;;5082943;28;20458;-82
2023/05/02 08:10:27;;;;;;;8.63;6.20;;;13.70;99.90;;;;;;5080647;28;20465;-83
2023/05/02 08:12:55;;;;;;;6.40;5.10;;;14.00;99.90;;;;;;5093767;28;20541;-82
2023/05/02 08:15:29;;;;;;;9.30;6.63;;;14.00;99.90;;;;;;5082005;28;20482;-81
2023/05/02 08:18:01;;;;;;;7.93;5.80;;;13.80;99.90;;;;;;5100677;28;20456;-82
2023/05/02 08:20:29;;;;;;;9.53;7.30;;;13.70;99.90;;;;;;5079472;28;20803;-81
2023/05/02 08:22:58;;;;;;;10.30;6.03;;;13.90;99.90;;;;;;5097119;28;21038;-82
2023/05/02 08:25:29;;;;;;;8.27;6.00;;;14.20;99.90;;;;;;5080787;28;20454;-82
2023/05/02 08:28:02;;;;;;;9.17;6.13;;;13.90;99.90;;;;;;5075467;28;20465;-84
2023/05/02 08:30:38;;;;;;;9.50;6.03;;;14.20;99.90;;;;;;5063544;28;20839;-82
2023/05/02 08:36:17;;;;;;;11.50;6.50;;;14.20;99.40;;;;;;5088819;28;20481;-82
2023/05/02 08:38:52;;;;;;;8.43;6.77;;;14.10;99.60;;;;;;5103420;28;20472;-82
2023/05/02 08:41:33;;;;;;;10.93;5.90;;;14.00;99.90;;;;;;5102840;28;20492;-83
2023/05/02 08:44:02;;;;;;;7.17;5.60;;;14.00;99.90;;;;;;5095933;28;20481;-81
2023/05/02 08:46:42;;;;;;;7.87;6.07;;;13.90;99.90;;;;;;5076722;28;20503;-84
2023/05/02 08:49:14;;;;;;;9.40;5.10;;;14.10;99.90;;;;;;5086146;28;20542;-83
2023/05/02 08:51:50;;;;;;;5.67;4.80;;;14.40;99.40;;;;;;5098486;28;20878;-85
2023/05/02 08:54:26;;;;;;;4.80;4.30;;;14.20;98.50;;;;;;5093710;28;20501;-83
2023/05/02 08:57:02;;;;;;;7.27;4.27;;;14.20;98.10;;;;;;5105810;28;20505;-84
2023/05/02 08:59:34;;;;;;;5.93;5.10;;;14.00;98.20;;;;;;5082821;28;20459;-83
2023/05/02 09:02:25;;;;;;;3.27;2.97;;;13.90;98.40;;;;;;5080539;28;20534;-82
2023/05/02 09:05:13;;;;;;;2.33;2.17;;;13.80;98.30;;;;;;5076632;28;20438;-84
2023/05/02 09:08:09;;;;;;;2.17;2.07;;;13.90;98.40;;;;;;5091617;28;20473;-82
2023/05/02 09:10:55;;;;;;;3.20;2.30;;;13.90;98.10;;;;;;5083885;28;20482;-84
2023/05/02 09:13:35;;;;;;;2.87;2.67;;;14.00;98.00;;;;;;5095618;28;20516;-83
2023/05/02 09:16:22;;;;;;;3.40;2.13;;;14.20;97.60;;;;;;5092643;28;20473;-83
2023/05/02 09:18:58;;;;;;;4.27;3.10;;;14.30;97.30;;;;;;5076690;28;20925;-82
2023/05/02 09:21:42;;;;;;;3.43;3.13;;;14.50;96.40;;;;;;5079863;28;20486;-82
2023/05/02 09:24:38;;;;;;;5.27;3.47;;;14.50;95.00;;;;;;5077297;28;20470;-82
2023/05/02 09:27:21;;;;;;;5.93;4.00;;;14.50;95.00;;;;;;5095170;28;20543;-82
2023/05/02 09:30:25;;;;;;;5.23;3.90;;;14.20;95.10;;;;;;5079439;28;20471;-80
2023/05/02 09:33:05;;;;;;;7.63;3.80;;;14.40;94.80;;;;;;5095063;28;20450;-83
2023/05/02 09:35:35;;;;;;;4.37;3.90;;;14.30;94.60;;;;;;5079107;28;20489;-81
2023/05/02 09:38:54;;;;;;;5.20;4.53;;;14.30;94.50;;;;;;5071094;28;20482;-82
2023/05/02 09:41:47;;;;;;;4.50;4.10;;;14.10;94.70;;;;;;5083073;28;20467;-82
2023/05/02 09:44:39;;;;;;;4.23;3.40;;;13.90;94.80;;;;;;5098537;28;20458;-84
2023/05/02 09:47:49;;;;;;;4.50;4.10;;;14.20;94.70;;;;;;5076282;28;20446;-82
2023/05/02 09:50:46;;;;;;;6.17;3.63;;;14.40;94.50;;;;;;5069528;28;20657;-83
2023/05/02 09:57:13;;;;;;;5.93;5.33;;;14.90;93.70;;;;;;5082498;28;20423;-83
2023/05/02 10:00:18;;;;;;;5.70;4.80;;;15.00;93.60;;;;;;5072336;28;20473;-83
2023/05/02 10:02:59;;;;;;;5.47;4.97;;;14.70;93.50;;;;;;5085137;28;20502;-84
2023/05/02 10:05:29;;;;;;;5.40;4.90;;;14.80;93.50;;;;;;5072925;28;20438;-84
2023/05/02 10:07:59;;;;;;;6.83;5.20;;;14.50;93.40;;;;;;5075339;28;20485;-83
2023/05/02 10:10:59;;;;;;;6.73;6.03;;;14.60;93.90;;;;;;5063436;28;20474;-83
2023/05/02 10:13:36;;;;;;;8.50;5.83;;;14.60;93.00;;;;;;5082635;28;20452;-83
2023/05/02 10:16:11;;;;;;;6.50;4.97;;;14.60;93.30;;;;;;5074709;28;20556;-83
2023/05/02 10:19:02;;;;;;;5.47;4.87;;;14.60;93.10;;;;;;5090296;28;20462;-82
2023/05/02 10:21:43;;;;;;;6.43;5.50;;;14.60;93.10;;;;;;5070933;28;20516;-82
2023/05/02 10:24:20;;;;;;;5.53;4.97;;;14.70;92.90;;;;;;5086786;28;20509;-84
2023/05/02 10:26:51;;;;;;;6.07;4.20;;;14.80;92.20;;;;;;5085036;28;21008;-82
2023/05/02 10:29:25;;;;;;;5.17;4.70;;;15.20;91.50;;;;;;5089497;28;20581;-83
2023/05/02 10:32:20;;;;;;;6.13;4.80;;;15.00;91.00;;;;;;5072224;28;20447;-83
2023/05/02 10:35:02;;;;;;;5.53;4.40;;;14.80;91.50;;;;;;5105110;28;20458;-83
2023/05/02 10:37:49;;;;;;;4.90;3.50;;;14.80;91.40;;;;;;5067591;28;20802;-82
2023/05/02 10:40:28;;;;;;;3.63;3.33;;;14.90;91.10;;;;;;5072091;28;20471;-83
2023/05/02 10:43:00;;;;;;;4.10;3.60;;;14.90;90.60;;;;;;5083605;28;20474;-82
2023/05/02 10:45:39;;;;;;;4.47;3.17;;;14.90;90.60;;;;;;5067056;28;20476;-83
2023/05/02 10:48:31;;;;;;;3.87;3.57;;;15.10;90.30;;;;;;5090093;28;20446;-81
2023/05/02 10:51:15;;;;;;;;;;;;;;;;;;;;;
2023/05/02 10:53:51;;;;;;;4.77;4.30;;;15.20;89.80;;;;;;5070132;28;20455;-83
2023/05/02 10:56:25;;;;;;;3.37;3.03;;;14.70;90.60;;;;;;5088401;28;20454;-83
2023/05/02 10:59:35;;;;;;;4.50;4.10;;;15.10;90.80;;;;;;5085527;28;20557;-84
2023/05/02 11:02:24;;;;;;;5.93;4.57;;;15.30;90.00;;;;;;5074481;28;20471;-83
2023/05/02 11:05:08;;;;;;;4.10;3.80;;;14.90;90.30;;;;;;5071599;28;20539;-83
2023/05/02 11:07:42;;;;;;;4.77;4.27;;;14.70;90.90;;;;;;5075723;28;20565;-82
2023/05/02 11:10:44;;;;;;;5.00;4.50;;;14.90;90.90;;;;;;5067188;28;20528;-83
2023/05/02 11:13:36;;;;;;;4.27;3.90;;;15.10;88.70;;;;;;5075189;28;20445;-83
2023/05/02 11:16:14;;;;;;;6.10;4.53;;;14.80;89.20;;;;;;5067658;28;20446;-83
2023/05/02 11:19:48;;;;;;;4.63;4.23;;;14.80;89.40;;;;;;5067893;28;20487;-83
2023/05/02 11:22:45;;;;;;;3.97;3.67;;;14.90;88.80;;;;;;5070752;28;20953;-82
2023/05/02 11:25:48;;;;;;;4.40;4.00;;;14.90;88.00;;;;;;5075010;28;20458;-83
2023/05/02 11:28:49;;;;;;;4.20;3.80;;;15.30;86.50;;;;;;5080193;28;20446;-83
2023/05/02 11:31:39;;;;;;;6.20;4.60;;;15.70;84.90;;;;;;5089125;28;20526;-82
2023/05/02 11:34:17;;;;;;;5.00;4.43;;;15.40;85.40;;;;;;5088259;28;20447;-83
2023/05/02 11:37:33;;;;;;;5.13;4.43;;;15.20;86.30;;;;;;5097503;28;20451;-85
2023/05/02 11:40:25;;;;;;;5.60;4.70;;;15.10;87.00;;;;;;5098758;28;20988;-82
2023/05/02 11:43:58;;;;;;;4.33;3.93;;;15.30;86.70;;;;;;5083325;28;20523;-82
2023/05/02 11:46:39;;;;;;;4.37;3.97;;;15.20;86.00;;;;;;5047066;28;20868;-84
2023/05/02 11:55:29;;;;;;;5.57;5.07;;;15.70;84.30;;;;;;4947193;28;20468;-82
2023/05/02 11:58:37;;;;;;;6.10;5.07;;;15.60;82.90;;;;;;4879753;28;20475;-83
2023/05/02 12:04:31;;;;;;;4.93;4.43;;;15.90;81.10;;;;;;5017768;28;20496;-83
2023/05/02 12:07:43;;;;;;;5.30;4.80;;;16.20;80.50;;;;;;4946759;28;21124;-84
2023/05/02 12:11:00;;;;;;;6.17;5.17;;;16.10;79.60;;;;;;4931142;28;20500;-83
2023/05/02 12:13:48;;;;;;;4.10;3.67;;;16.20;78.00;;;;;;4925041;28;20563;-82
2023/05/02 12:16:18;;;;;;;3.97;3.30;;;16.50;78.00;;;;;;4934717;28;20555;-85
2023/05/02 12:18:47;;;;;;;3.00;2.80;;;16.70;76.30;;;;;;4951276;28;20467;-83
2023/05/02 12:21:15;;;;;;;2.90;2.70;;;16.90;74.70;;;;;;4954307;28;20473;-83
2023/05/02 12:23:43;;;;;;;3.30;3.00;;;16.80;73.20;;;;;;4935073;28;20491;-83
2023/05/02 12:26:28;;;;;;;2.80;2.60;;;16.70;73.00;;;;;;4972575;28;21261;-83
2023/05/02 12:28:55;;;;;;;3.77;3.43;;;16.60;73.80;;;;;;4990606;28;20446;-83
2023/05/02 12:31:26;;;;;;;3.67;3.23;;;16.70;73.40;;;;;;5018142;28;20445;-83
2023/05/02 12:33:56;;;;;;;3.70;2.90;;;16.50;74.00;;;;;;4999726;28;20484;-83
2023/05/02 12:36:23;;;;;;;5.30;3.50;;;16.60;74.20;;;;;;5006370;28;20440;-84
2023/05/02 12:38:56;;;;;;;5.67;3.40;;;16.70;73.40;;;;;;5002301;28;20461;-83
2023/05/02 12:41:42;;;;;;;5.00;3.03;;;16.60;72.40;;;;;;5002038;28;20828;-84
2023/05/02 12:44:09;;;;;;;3.77;3.37;;;17.10;70.30;;;;;;5013902;28;20486;-83
2023/05/02 12:46:56;;;;;;;4.03;3.63;;;17.20;68.30;;;;;;5000910;28;20489;-84
2023/05/02 12:49:23;;;;;;;3.60;3.20;;;17.00;68.40;;;;;;5019650;28;20481;-84
2023/05/02 12:51:57;;;;;;;4.83;4.10;;;17.00;68.80;;;;;;5007685;28;20461;-84
2023/05/02 12:54:25;;;;;;;4.07;3.00;;;16.80;68.30;;;;;;5014165;28;20821;-80
2023/05/02 12:56:52;;;;;;;4.53;4.13;;;16.80;68.80;;;;;;5021204;28;20588;-83
2023/05/02 12:59:28;;;;;;;4.13;3.77;;;16.70;69.10;;;;;;5015272;28;21394;-83
2023/05/02 13:01:56;;;;;;;3.40;3.00;;;16.70;68.90;;;;;;5010535;28;21071;-82
2023/05/02 13:04:38;;;;;;;3.73;3.27;;;16.60;69.80;;;;;;5014339;28;20502;-83
2023/05/02 13:07:06;;;;;;;3.73;3.20;;;16.70;69.90;;;;;;5010477;28;20500;-83
2023/05/02 13:09:33;;;;;;;5.20;2.93;;;17.00;68.50;;;;;;5010016;28;20484;-82
2023/05/02 13:12:02;;;;;;;4.83;3.50;;;16.80;68.20;;;;;;5018608;28;20492;-83
2023/05/02 13:14:32;;;;;;;5.67;3.60;;;16.90;66.80;;;;;;5019013;28;20564;-84
2023/05/02 13:16:59;;;;;;;4.33;3.03;;;16.50;67.40;;;;;;5006360;28;20464;-83
2023/05/02 13:19:30;;;;;;;5.80;2.80;;;16.50;67.50;;;;;;5020082;28;20496;-83
2023/05/02 13:21:57;;;;;;;3.20;2.30;;;16.30;66.40;;;;;;5002830;28;20472;-84
2023/05/02 13:24:25;;;;;;;3.77;2.73;;;16.00;67.30;;;;;;5000972;28;20484;-83
2023/05/02 13:26:52;;;;;;;6.63;3.30;;;16.00;68.70;;;;;;4999116;28;20668;-84
2023/05/02 13:29:19;;;;;;;7.53;4.10;;;16.40;67.60;;;;;;5014206;28;20477;-84
2023/05/02 13:31:46;;;;;;;4.07;3.47;;;16.30;67.30;;;;;;4998937;28;20516;-84
2023/05/02 13:34:13;;;;;;;3.77;3.43;;;16.20;67.90;;;;;;5000647;28;20462;-84
2023/05/02 13:36:44;;;;;;;3.90;3.17;;;16.60;67.60;;;;;;5002339;28;20470;-84
2023/05/02 13:39:12;;;;;;;3.47;3.27;;;16.70;67.10;;;;;;4998646;28;20485;-84